Time;durP1;ratioP1;P1;durP2;ratioP2;P2;SDS_P1;SDS_P2;PMS_P1;PMS_P2;Temp;Humidity;BMP_temperature;BMP_pressure;BME280_temperature;BME280_humidity;BME280_pressure;Samples;Min_cycle;Max_cycle;Signal;HPM_P1;HPM_P2
2024/02/28 00:02:21;;;;;;;3.70;2.75;;;;;;;;;;4995368;28;20154;-74
2024/02/28 00:04:46;;;;;;;4.68;3.15;;;;;;;;;;4997754;28;20523;-71
2024/02/28 00:07:12;;;;;;;4.53;2.70;;;;;;;;;;4987556;28;20516;-70
2024/02/28 00:09:37;;;;;;;4.05;2.80;;;;;;;;;;4986016;28;20042;-73
2024/02/28 00:12:15;;;;;;;4.07;2.92;;;;;;;;;;4979023;28;20050;-75
2024/02/28 00:14:40;;;;;;;3.83;2.80;;;;;;;;;;5000371;28;20077;-74
2024/02/28 00:17:08;;;;;;;3.25;2.50;;;;;;;;;;4983287;28;20069;-74
2024/02/28 00:19:48;;;;;;;3.70;2.58;;;;;;;;;;4999424;28;20495;-74
2024/02/28 00:22:13;;;;;;;4.00;2.90;;;;;;;;;;5000916;28;20069;-73
2024/02/28 00:24:38;;;;;;;3.83;2.72;;;;;;;;;;4980840;28;20066;-72
2024/02/28 00:27:04;;;;;;;4.13;3.00;;;;;;;;;;5003293;28;20153;-72
2024/02/28 00:29:29;;;;;;;3.92;2.85;;;;;;;;;;4984440;28;20038;-74
2024/02/28 00:31:54;;;;;;;3.45;2.35;;;;;;;;;;4982587;28;20398;-75
2024/02/28 00:34:20;;;;;;;3.47;2.67;;;;;;;;;;4983948;28;20046;-72
2024/02/28 00:36:45;;;;;;;3.88;2.70;;;;;;;;;;4987718;28;20131;-70
2024/02/28 00:39:17;;;;;;;4.22;3.10;;;;;;;;;;4989204;28;20025;-72
2024/02/28 00:41:42;;;;;;;4.90;3.20;;;;;;;;;;4995132;28;20041;-73
2024/02/28 00:44:08;;;;;;;4.22;2.90;;;;;;;;;;4984206;28;20029;-71
2024/02/28 00:46:34;;;;;;;4.03;2.85;;;;;;;;;;4981899;28;20054;-69
2024/02/28 00:48:59;;;;;;;4.07;3.10;;;;;;;;;;4980568;28;20625;-73
2024/02/28 00:51:24;;;;;;;4.40;3.20;;;;;;;;;;4985731;28;20613;-70
2024/02/28 00:53:50;;;;;;;3.95;2.72;;;;;;;;;;4993289;28;20407;-73
2024/02/28 00:56:15;;;;;;;4.03;2.83;;;;;;;;;;5002098;28;20057;-72
2024/02/28 00:58:48;;;;;;;3.85;3.13;;;;;;;;;;5013178;28;20033;-72
2024/02/28 01:01:13;;;;;;;4.38;2.95;;;;;;;;;;4986526;28;20038;-72
2024/02/28 01:03:39;;;;;;;4.22;3.10;;;;;;;;;;5000906;28;20113;-73
2024/02/28 01:06:04;;;;;;;4.57;2.92;;;;;;;;;;4986277;28;20433;-72
2024/02/28 01:08:29;;;;;;;4.85;3.00;;;;;;;;;;4984488;28;20117;-71
2024/02/28 01:10:55;;;;;;;3.30;2.45;;;;;;;;;;4992664;28;20125;-72
2024/02/28 01:13:20;;;;;;;4.07;3.05;;;;;;;;;;5005214;28;20053;-75
2024/02/28 01:15:46;;;;;;;3.63;2.85;;;;;;;;;;4997610;28;20077;-70
2024/02/28 01:18:11;;;;;;;4.47;3.20;;;;;;;;;;4984693;28;20038;-74
2024/02/28 01:20:37;;;;;;;3.90;3.00;;;;;;;;;;4985642;28;20053;-75
2024/02/28 01:23:02;;;;;;;3.30;2.70;;;;;;;;;;4979680;28;20377;-70
2024/02/28 01:25:28;;;;;;;4.00;2.70;;;;;;;;;;4983301;28;20497;-71
2024/02/28 01:27:55;;;;;;;4.28;3.00;;;;;;;;;;4985610;28;20185;-73
2024/02/28 01:30:21;;;;;;;3.80;3.00;;;;;;;;;;4982557;28;20065;-74
2024/02/28 01:32:46;;;;;;;4.13;2.60;;;;;;;;;;4983484;28;20545;-75
2024/02/28 01:35:12;;;;;;;4.63;3.10;;;;;;;;;;4984498;28;20082;-74
2024/02/28 01:37:37;;;;;;;4.55;3.08;;;;;;;;;;4983348;28;20039;-74
2024/02/28 01:40:19;;;;;;;4.63;3.50;;;;;;;;;;4977895;28;20057;-75
2024/02/28 01:42:45;;;;;;;4.93;3.10;;;;;;;;;;4966030;28;20427;-74
2024/02/28 01:45:12;;;;;;;3.92;2.90;;;;;;;;;;4982246;28;20034;-74
2024/02/28 01:47:38;;;;;;;4.13;3.00;;;;;;;;;;4994285;28;20136;-73
2024/02/28 01:50:29;;;;;;;3.90;3.17;;;;;;;;;;4990314;28;20031;-73
2024/02/28 01:52:55;;;;;;;5.43;3.40;;;;;;;;;;4984064;28;20069;-69
2024/02/28 01:55:24;;;;;;;3.95;2.88;;;;;;;;;;4987618;28;20123;-73
2024/02/28 01:57:49;;;;;;;4.20;2.97;;;;;;;;;;5000058;28;20416;-69
2024/02/28 02:00:15;;;;;;;5.15;3.58;;;;;;;;;;4972593;28;20042;-70
2024/02/28 02:02:40;;;;;;;4.63;3.13;;;;;;;;;;4990097;28;20041;-70
2024/02/28 02:05:06;;;;;;;3.95;3.15;;;;;;;;;;4971448;28;20475;-69
2024/02/28 02:07:31;;;;;;;3.97;3.10;;;;;;;;;;4984908;28;20086;-71
2024/02/28 02:09:56;;;;;;;3.97;2.97;;;;;;;;;;4976248;28;20043;-73
2024/02/28 02:12:22;;;;;;;4.10;3.10;;;;;;;;;;4995037;28;20034;-68
2024/02/28 02:14:50;;;;;;;3.97;3.10;;;;;;;;;;4980022;28;20457;-72
2024/02/28 02:17:16;;;;;;;3.65;2.90;;;;;;;;;;4982922;28;20038;-73
2024/02/28 02:19:41;;;;;;;4.90;3.30;;;;;;;;;;4997249;28;20034;-71
2024/02/28 02:22:07;;;;;;;5.00;3.20;;;;;;;;;;4991278;28;20077;-70
2024/02/28 02:24:36;;;;;;;3.92;2.80;;;;;;;;;;4992570;28;20133;-69
2024/02/28 02:27:01;;;;;;;4.63;3.17;;;;;;;;;;4996865;28;20050;-70
2024/02/28 02:29:32;;;;;;;4.90;3.25;;;;;;;;;;4983666;28;20477;-75
2024/02/28 02:31:58;;;;;;;4.82;3.47;;;;;;;;;;4984366;28;20030;-74
2024/02/28 02:34:23;;;;;;;4.20;2.88;;;;;;;;;;4976762;28;20039;-71
2024/02/28 02:36:48;;;;;;;4.53;3.30;;;;;;;;;;4970619;28;20559;-74
2024/02/28 02:39:14;;;;;;;3.75;2.90;;;;;;;;;;4986793;28;20520;-73
2024/02/28 02:41:40;;;;;;;5.00;3.50;;;;;;;;;;4985856;28;20042;-75
2024/02/28 02:44:06;;;;;;;4.65;3.20;;;;;;;;;;4989539;28;20041;-73
2024/02/28 02:46:31;;;;;;;5.15;3.63;;;;;;;;;;4990715;28;20415;-72
2024/02/28 02:48:56;;;;;;;4.53;3.17;;;;;;;;;;4983902;28;20473;-72
2024/02/28 02:51:21;;;;;;;5.03;3.13;;;;;;;;;;4997423;28;20030;-74
2024/02/28 02:53:47;;;;;;;4.63;3.35;;;;;;;;;;4995247;28;20389;-74
2024/02/28 02:56:12;;;;;;;3.97;2.83;;;;;;;;;;4974227;28;20049;-76
2024/02/28 02:58:37;;;;;;;3.33;2.85;;;;;;;;;;4995156;28;20569;-75
2024/02/28 03:01:03;;;;;;;3.92;3.03;;;;;;;;;;4979091;28;20046;-72
2024/02/28 03:03:28;;;;;;;3.97;2.97;;;;;;;;;;4991770;28;20034;-74
2024/02/28 03:05:54;;;;;;;4.70;3.58;;;;;;;;;;4980264;28;20060;-75
2024/02/28 03:08:19;;;;;;;5.20;3.40;;;;;;;;;;4994278;28;20045;-76
2024/02/28 03:10:45;;;;;;;4.00;3.20;;;;;;;;;;4992695;28;20054;-69
2024/02/28 03:13:11;;;;;;;4.40;3.22;;;;;;;;;;5003579;28;20085;-75
2024/02/28 03:15:36;;;;;;;4.53;2.90;;;;;;;;;;4977281;28;20043;-73
2024/02/28 03:18:02;;;;;;;4.10;3.15;;;;;;;;;;4976623;28;20090;-74
2024/02/28 03:20:27;;;;;;;4.20;3.20;;;;;;;;;;4985338;28;20532;-74
2024/02/28 03:22:52;;;;;;;3.55;2.88;;;;;;;;;;5003612;28;20470;-72
2024/02/28 03:25:18;;;;;;;3.65;3.08;;;;;;;;;;4984139;28;20070;-75
2024/02/28 03:27:43;;;;;;;4.53;3.28;;;;;;;;;;4984472;28;20037;-73
2024/02/28 03:30:09;;;;;;;3.63;3.10;;;;;;;;;;4975955;28;20041;-74
2024/02/28 03:32:34;;;;;;;4.38;3.30;;;;;;;;;;5004758;28;20037;-74
2024/02/28 03:35:00;;;;;;;4.35;3.30;;;;;;;;;;4988714;28;20119;-74
2024/02/28 03:37:25;;;;;;;4.18;3.00;;;;;;;;;;4986538;28;20030;-72
2024/02/28 03:39:51;;;;;;;5.32;3.50;;;;;;;;;;4986313;28;20042;-74
2024/02/28 03:42:16;;;;;;;4.20;3.03;;;;;;;;;;4987158;28;20030;-74
2024/02/28 03:44:41;;;;;;;5.00;3.13;;;;;;;;;;4992545;28;20144;-75
2024/02/28 03:47:07;;;;;;;5.03;3.25;;;;;;;;;;4985247;28;20037;-71
2024/02/28 03:49:44;;;;;;;3.92;3.03;;;;;;;;;;5001735;28;20061;-74
2024/02/28 03:52:18;;;;;;;4.45;3.50;;;;;;;;;;4986857;28;20040;-72
2024/02/28 03:54:44;;;;;;;4.53;3.00;;;;;;;;;;4987872;28;20045;-74
2024/02/28 03:57:10;;;;;;;4.45;3.38;;;;;;;;;;4980492;28;20038;-74
2024/02/28 03:59:38;;;;;;;4.22;3.35;;;;;;;;;;4991231;28;20566;-73
2024/02/28 04:02:06;;;;;;;3.58;3.00;;;;;;;;;;4983646;28;20057;-73
2024/02/28 04:04:31;;;;;;;4.55;3.17;;;;;;;;;;4976949;28;20492;-74
2024/02/28 04:06:56;;;;;;;4.22;2.97;;;;;;;;;;4981824;28;20037;-73
2024/02/28 04:09:21;;;;;;;5.90;3.47;;;;;;;;;;4985773;28;20448;-69
2024/02/28 04:11:47;;;;;;;4.30;3.30;;;;;;;;;;4986939;28;20041;-74
2024/02/28 04:14:12;;;;;;;4.38;3.30;;;;;;;;;;4986523;28;20595;-69
2024/02/28 04:16:41;;;;;;;4.47;3.15;;;;;;;;;;4985083;28;20023;-72
2024/02/28 04:19:06;;;;;;;4.38;3.33;;;;;;;;;;5000711;28;20563;-70
2024/02/28 04:21:50;;;;;;;4.57;3.40;;;;;;;;;;4977677;28;20168;-73
2024/02/28 04:24:15;;;;;;;4.20;3.33;;;;;;;;;;5004934;28;20602;-73
2024/02/28 04:26:40;;;;;;;4.88;3.50;;;;;;;;;;4993384;28;20129;-72
2024/02/28 04:29:12;;;;;;;5.00;3.40;;;;;;;;;;4987223;28;20085;-74
2024/02/28 04:31:37;;;;;;;4.28;3.42;;;;;;;;;;4968900;28;20049;-74
2024/02/28 04:34:29;;;;;;;4.05;3.20;;;;;;;;;;4980956;28;20046;-74
2024/02/28 04:36:57;;;;;;;4.78;3.45;;;;;;;;;;4993460;28;20060;-74
2024/02/28 04:39:22;;;;;;;3.97;3.17;;;;;;;;;;5002669;28;20034;-69
2024/02/28 04:45:15;;;;;;;5.57;3.30;;;;;;;;;;4993583;28;20058;-73
2024/02/28 04:47:43;;;;;;;4.47;3.25;;;;;;;;;;4950753;28;20060;-74
2024/02/28 04:50:09;;;;;;;4.13;3.30;;;;;;;;;;4973403;28;20097;-74
2024/02/28 04:52:34;;;;;;;4.45;3.40;;;;;;;;;;4979784;28;20046;-75
2024/02/28 04:55:00;;;;;;;4.20;3.10;;;;;;;;;;4986125;28;20141;-74
2024/02/28 04:58:28;;;;;;;4.95;3.40;;;;;;;;;;4985754;28;20044;-74
2024/02/28 05:00:46;;;;;;;5.03;3.20;;;;;;;;;;4971159;28;20030;-75
2024/02/28 05:03:25;;;;;;;4.10;3.33;;;;;;;;;;4972118;28;20034;-72
2024/02/28 05:05:53;;;;;;;5.20;3.42;;;;;;;;;;4977349;28;20417;-74
2024/02/28 05:08:19;;;;;;;5.05;3.10;;;;;;;;;;4974219;28;20034;-75
2024/02/28 05:10:58;;;;;;;5.03;3.55;;;;;;;;;;4965803;28;20046;-74
2024/02/28 05:13:31;;;;;;;4.00;2.97;;;;;;;;;;4975064;28;20489;-73
2024/02/28 05:15:56;;;;;;;4.30;3.20;;;;;;;;;;4974145;28;20034;-75
2024/02/28 05:18:25;;;;;;;3.30;2.85;;;;;;;;;;4980567;28;20042;-76
2024/02/28 05:21:17;;;;;;;5.28;3.45;;;;;;;;;;4982159;28;20436;-76
2024/02/28 05:23:48;;;;;;;4.30;3.50;;;;;;;;;;4968872;28;20038;-75
2024/02/28 05:26:13;;;;;;;5.50;3.10;;;;;;;;;;4983575;28;20136;-72
2024/02/28 05:28:42;;;;;;;4.25;3.28;;;;;;;;;;4984873;28;20105;-72
2024/02/28 05:31:40;;;;;;;4.10;2.88;;;;;;;;;;4979714;28;20592;-73
2024/02/28 05:34:11;;;;;;;4.97;3.10;;;;;;;;;;4996164;28;20046;-71
2024/02/28 05:36:44;;;;;;;4.63;3.15;;;;;;;;;;4973475;28;20018;-71
2024/02/28 05:39:10;;;;;;;4.90;3.47;;;;;;;;;;4988693;28;20068;-71
2024/02/28 05:41:35;;;;;;;4.15;3.17;;;;;;;;;;4980294;28;20121;-74
2024/02/28 05:44:00;;;;;;;5.22;3.28;;;;;;;;;;4957482;28;20034;-76
2024/02/28 05:46:32;;;;;;;4.40;3.30;;;;;;;;;;4980059;28;20044;-73
2024/02/28 05:49:00;;;;;;;4.22;3.13;;;;;;;;;;4979101;28;20030;-70
2024/02/28 05:51:25;;;;;;;4.07;3.20;;;;;;;;;;4974346;28;20180;-76
2024/02/28 05:53:53;;;;;;;4.65;3.15;;;;;;;;;;4982752;28;20145;-71
2024/02/28 05:56:19;;;;;;;4.38;2.95;;;;;;;;;;4971360;28;20034;-75
2024/02/28 05:58:45;;;;;;;4.15;3.10;;;;;;;;;;4979953;28;20081;-72
2024/02/28 06:01:11;;;;;;;4.93;3.70;;;;;;;;;;4960187;28;20063;-70
2024/02/28 06:03:37;;;;;;;4.47;2.78;;;;;;;;;;4969392;28;20172;-74
2024/02/28 06:06:04;;;;;;;4.35;2.92;;;;;;;;;;4985321;28;20054;-71
2024/02/28 06:08:31;;;;;;;4.88;3.38;;;;;;;;;;4979968;28;20065;-70
2024/02/28 06:10:56;;;;;;;4.85;3.22;;;;;;;;;;4976428;28;20099;-79
2024/02/28 06:13:21;;;;;;;6.15;3.15;;;;;;;;;;4991593;28;20412;-68
2024/02/28 06:15:47;;;;;;;7.18;3.10;;;;;;;;;;4979682;28;20150;-71
2024/02/28 06:18:12;;;;;;;4.32;2.95;;;;;;;;;;4976181;28;20034;-68
2024/02/28 06:20:37;;;;;;;5.28;3.30;;;;;;;;;;4978388;28;20041;-69
2024/02/28 06:23:03;;;;;;;15.48;4.97;;;;;;;;;;4978121;28;20069;-68
2024/02/28 06:25:29;;;;;;;31.67;7.93;;;;;;;;;;4976443;28;20065;-70
2024/02/28 06:27:54;;;;;;;27.65;7.15;;;;;;;;;;4955888;28;20026;-70
2024/02/28 06:30:20;;;;;;;28.38;7.78;;;;;;;;;;4980809;28;20034;-67
2024/02/28 06:32:45;;;;;;;28.67;8.20;;;;;;;;;;4978354;28;20508;-70
2024/02/28 06:35:10;;;;;;;29.15;7.95;;;;;;;;;;4976917;28;20030;-68
2024/02/28 06:37:36;;;;;;;23.45;8.15;;;;;;;;;;4983298;28;20042;-71
2024/02/28 06:40:04;;;;;;;29.48;8.07;;;;;;;;;;4984744;28;20705;-70
2024/02/28 06:42:30;;;;;;;25.98;8.00;;;;;;;;;;4985868;28;20084;-67
2024/02/28 06:44:55;;;;;;;26.27;8.50;;;;;;;;;;4993491;28;20035;-68
2024/02/28 06:47:20;;;;;;;19.45;7.40;;;;;;;;;;4986742;28;20038;-71
2024/02/28 06:49:46;;;;;;;24.10;8.32;;;;;;;;;;4981137;28;20065;-66
2024/02/28 06:52:11;;;;;;;23.13;7.75;;;;;;;;;;4979698;28;20543;-65
2024/02/28 06:54:37;;;;;;;22.70;8.30;;;;;;;;;;4980163;28;20496;-68
2024/02/28 06:57:02;;;;;;;22.05;8.27;;;;;;;;;;4978641;28;20046;-70
2024/02/28 06:59:27;;;;;;;21.35;7.70;;;;;;;;;;4977087;28;20128;-69
2024/02/28 07:01:53;;;;;;;21.02;8.32;;;;;;;;;;4976575;28;20407;-69
2024/02/28 07:04:19;;;;;;;17.88;7.55;;;;;;;;;;4970620;28;20130;-68
2024/02/28 07:06:44;;;;;;;17.20;8.18;;;;;;;;;;4969968;28;20046;-66
2024/02/28 07:09:15;;;;;;;16.92;7.80;;;;;;;;;;4976528;28;20030;-68
2024/02/28 07:11:41;;;;;;;20.83;7.95;;;;;;;;;;4975830;28;20035;-67
2024/02/28 07:14:15;;;;;;;16.70;8.40;;;;;;;;;;4978732;28;20053;-75
2024/02/28 07:16:40;;;;;;;16.48;7.38;;;;;;;;;;4976841;28;20041;-70
2024/02/28 07:19:05;;;;;;;15.55;7.30;;;;;;;;;;4968537;28;20054;-69
2024/02/28 07:21:32;;;;;;;15.23;7.55;;;;;;;;;;4977803;28;20133;-67
2024/02/28 07:23:57;;;;;;;16.00;7.78;;;;;;;;;;4973212;28;20046;-66
2024/02/28 07:26:22;;;;;;;13.88;7.75;;;;;;;;;;4976226;28;20042;-64
2024/02/28 07:28:50;;;;;;;14.43;7.47;;;;;;;;;;4977135;28;20410;-66
2024/02/28 07:31:16;;;;;;;13.90;7.63;;;;;;;;;;4976978;28;20936;-68
2024/02/28 07:33:41;;;;;;;13.38;6.85;;;;;;;;;;4969862;28;20088;-66
2024/02/28 07:36:06;;;;;;;13.35;6.75;;;;;;;;;;4977096;28;20062;-66
2024/02/28 07:38:32;;;;;;;12.98;7.00;;;;;;;;;;4974578;28;20062;-64
2024/02/28 07:40:58;;;;;;;17.00;7.63;;;;;;;;;;4976050;28;20073;-70
2024/02/28 07:43:23;;;;;;;15.40;7.47;;;;;;;;;;4989911;28;20529;-70
2024/02/28 07:45:48;;;;;;;13.18;6.95;;;;;;;;;;4970976;28;20042;-67
2024/02/28 07:48:13;;;;;;;12.75;6.95;;;;;;;;;;4976613;28;20053;-65
2024/02/28 07:50:41;;;;;;;13.35;7.07;;;;;;;;;;4975438;28;20058;-67
2024/02/28 07:53:15;;;;;;;13.40;7.22;;;;;;;;;;4977004;28;20046;-71
2024/02/28 07:55:40;;;;;;;12.52;7.10;;;;;;;;;;4961650;28;20042;-72
2024/02/28 07:58:06;;;;;;;10.88;6.97;;;;;;;;;;4966443;28;20039;-70
2024/02/28 08:00:41;;;;;;;11.63;6.70;;;;;;;;;;4967735;28;20186;-70
2024/02/28 08:03:07;;;;;;;13.93;6.93;;;;;;;;;;4951679;28;20130;-72
2024/02/28 08:05:40;;;;;;;13.80;7.30;;;;;;;;;;4972528;28;20154;-69
2024/02/28 08:08:06;;;;;;;13.55;7.13;;;;;;;;;;4965077;28;20049;-70
2024/02/28 08:10:31;;;;;;;11.30;6.82;;;;;;;;;;4968665;28;20031;-69
2024/02/28 08:12:57;;;;;;;11.43;7.38;;;;;;;;;;4970606;28;20556;-69
2024/02/28 08:15:22;;;;;;;12.48;7.25;;;;;;;;;;4976316;28;20209;-68
2024/02/28 08:17:47;;;;;;;11.43;7.22;;;;;;;;;;4972798;28;20042;-70
2024/02/28 08:20:22;;;;;;;11.85;6.82;;;;;;;;;;4976269;28;20115;-70
2024/02/28 08:22:47;;;;;;;10.55;6.88;;;;;;;;;;4983829;28;20155;-70
2024/02/28 08:25:14;;;;;;;12.02;7.82;;;;;;;;;;4977694;28;20715;-69
2024/02/28 08:27:39;;;;;;;13.80;8.15;;;;;;;;;;4978536;28;20041;-68
2024/02/28 08:30:05;;;;;;;12.13;8.00;;;;;;;;;;4980300;28;20066;-70
2024/02/28 08:32:31;;;;;;;10.18;8.05;;;;;;;;;;4981888;28;20070;-71
2024/02/28 08:34:57;;;;;;;14.25;8.40;;;;;;;;;;4987157;28;20074;-71
2024/02/28 08:37:34;;;;;;;12.15;7.35;;;;;;;;;;4983171;28;20453;-71
2024/02/28 08:39:59;;;;;;;13.68;8.65;;;;;;;;;;4963635;28;20042;-75
2024/02/28 08:42:25;;;;;;;12.98;8.75;;;;;;;;;;4981270;28;20029;-73
2024/02/28 08:44:51;;;;;;;13.43;8.18;;;;;;;;;;4978002;28;20065;-72
2024/02/28 08:47:16;;;;;;;13.88;9.00;;;;;;;;;;4979877;28;20026;-70
2024/02/28 08:49:41;;;;;;;13.50;9.05;;;;;;;;;;4979353;28;20034;-71
2024/02/28 08:52:07;;;;;;;14.07;8.63;;;;;;;;;;4981513;28;20049;-70
2024/02/28 08:54:32;;;;;;;12.82;8.82;;;;;;;;;;4980053;28;20044;-71
2024/02/28 08:56:57;;;;;;;13.48;9.63;;;;;;;;;;4963907;28;20775;-71
2024/02/28 08:59:31;;;;;;;14.68;9.38;;;;;;;;;;4972198;28;20069;-71
2024/02/28 09:01:57;;;;;;;12.73;9.07;;;;;;;;;;4979531;28;20501;-71
2024/02/28 09:04:22;;;;;;;13.77;9.50;;;;;;;;;;4979990;28;20058;-70
2024/02/28 09:06:48;;;;;;;14.48;9.00;;;;;;;;;;4973176;28;20134;-70
2024/02/28 09:09:14;;;;;;;13.30;8.90;;;;;;;;;;4972459;28;20205;-70
2024/02/28 09:11:39;;;;;;;15.98;9.10;;;;;;;;;;4980085;28;20425;-72
2024/02/28 09:14:22;;;;;;;13.20;8.63;;;;;;;;;;4979588;28;20842;-73
2024/02/28 09:16:50;;;;;;;14.85;10.13;;;;;;;;;;4977083;28;20109;-71
2024/02/28 09:19:17;;;;;;;13.57;8.80;;;;;;;;;;4979494;28;20114;-70
2024/02/28 09:21:42;;;;;;;14.15;9.70;;;;;;;;;;4972453;28;20094;-70
2024/02/28 09:24:07;;;;;;;15.60;9.75;;;;;;;;;;4979700;28;20042;-70
2024/02/28 09:26:33;;;;;;;16.17;9.32;;;;;;;;;;4978981;28;20125;-68
2024/02/28 09:28:58;;;;;;;16.30;9.38;;;;;;;;;;4978352;28;20510;-70
2024/02/28 09:31:26;;;;;;;14.38;9.93;;;;;;;;;;4979925;28;20129;-72
2024/02/28 09:33:51;;;;;;;14.73;9.35;;;;;;;;;;4980840;28;20051;-71
2024/02/28 09:36:17;;;;;;;13.57;9.65;;;;;;;;;;4978161;28;20057;-70
2024/02/28 09:38:42;;;;;;;15.18;10.10;;;;;;;;;;4978676;28;20553;-70
2024/02/28 09:41:07;;;;;;;13.48;9.60;;;;;;;;;;4974986;28;20037;-71
2024/02/28 09:43:39;;;;;;;14.30;9.15;;;;;;;;;;4977677;28;20199;-70
2024/02/28 09:46:15;;;;;;;13.13;9.45;;;;;;;;;;4969765;28;20042;-70
2024/02/28 09:48:43;;;;;;;15.77;9.38;;;;;;;;;;4986617;28;20620;-69
2024/02/28 09:51:09;;;;;;;13.80;9.05;;;;;;;;;;4976371;28;20039;-67
2024/02/28 09:53:34;;;;;;;12.25;8.95;;;;;;;;;;4981372;28;20049;-67
2024/02/28 09:55:59;;;;;;;14.52;9.27;;;;;;;;;;4978336;28;20034;-70
2024/02/28 09:58:25;;;;;;;14.88;9.70;;;;;;;;;;4976211;28;20050;-70
2024/02/28 10:00:50;;;;;;;14.95;9.45;;;;;;;;;;4971660;28;20042;-69
2024/02/28 10:03:18;;;;;;;15.23;8.82;;;;;;;;;;4972334;28;20053;-69
2024/02/28 10:05:44;;;;;;;13.25;9.05;;;;;;;;;;4969267;28;20061;-70
2024/02/28 10:08:09;;;;;;;16.00;9.55;;;;;;;;;;4976921;28;20035;-68
2024/02/28 10:10:43;;;;;;;14.18;9.75;;;;;;;;;;4984107;28;20990;-69
2024/02/28 10:13:24;;;;;;;14.02;9.25;;;;;;;;;;4987851;28;20567;-69
2024/02/28 10:15:50;;;;;;;12.75;9.27;;;;;;;;;;4973461;28;20038;-69
2024/02/28 10:18:15;;;;;;;14.32;9.05;;;;;;;;;;4985046;28;20041;-67
2024/02/28 10:20:41;;;;;;;14.48;8.82;;;;;;;;;;4984932;28;20568;-67
2024/02/28 10:23:08;;;;;;;12.68;8.98;;;;;;;;;;4978972;28;20125;-69
2024/02/28 10:25:33;;;;;;;13.45;8.98;;;;;;;;;;4978535;28;20332;-67
2024/02/28 10:27:59;;;;;;;12.05;8.52;;;;;;;;;;4977059;28;20516;-70
2024/02/28 10:30:25;;;;;;;12.63;8.80;;;;;;;;;;4980749;28;20034;-67
2024/02/28 10:32:50;;;;;;;14.25;8.23;;;;;;;;;;4976329;28;20042;-68
2024/02/28 10:35:17;;;;;;;15.25;8.82;;;;;;;;;;4977737;28;20042;-69
2024/02/28 10:37:42;;;;;;;13.20;8.80;;;;;;;;;;4976418;28;20493;-68
2024/02/28 10:40:08;;;;;;;14.95;8.82;;;;;;;;;;4975970;28;20041;-70
2024/02/28 10:42:33;;;;;;;15.20;9.20;;;;;;;;;;4991595;28;20747;-68
2024/02/28 10:44:58;;;;;;;13.70;8.73;;;;;;;;;;4991511;28;20038;-66
2024/02/28 10:47:24;;;;;;;13.25;8.60;;;;;;;;;;4974951;28;20034;-67
2024/02/28 10:49:57;;;;;;;13.63;8.52;;;;;;;;;;4981008;28;20030;-69
2024/02/28 10:52:23;;;;;;;13.07;8.85;;;;;;;;;;4973813;28;20057;-67
2024/02/28 10:54:53;;;;;;;11.63;8.35;;;;;;;;;;4977159;28;20054;-68
2024/02/28 10:57:18;;;;;;;14.50;8.68;;;;;;;;;;4970941;28;20128;-67
2024/02/28 10:59:44;;;;;;;14.20;9.13;;;;;;;;;;4975183;28;20699;-66
2024/02/28 11:02:09;;;;;;;12.40;8.45;;;;;;;;;;4977181;28;20041;-66
2024/02/28 11:04:35;;;;;;;14.55;8.55;;;;;;;;;;4974332;28;20042;-66
2024/02/28 11:07:01;;;;;;;14.00;8.82;;;;;;;;;;4973991;28;20046;-67
2024/02/28 11:09:28;;;;;;;13.57;8.05;;;;;;;;;;4980291;28;20049;-67
2024/02/28 11:11:53;;;;;;;13.77;8.90;;;;;;;;;;4976267;28;20042;-67
2024/02/28 11:14:22;;;;;;;13.38;8.30;;;;;;;;;;4975168;28;20050;-68
2024/02/28 11:16:47;;;;;;;11.70;7.68;;;;;;;;;;4977095;28;20046;-68
2024/02/28 11:19:22;;;;;;;13.25;7.97;;;;;;;;;;4991682;28;20580;-68
2024/02/28 11:21:54;;;;;;;12.10;8.27;;;;;;;;;;4978600;28;20053;-68
2024/02/28 11:24:22;;;;;;;11.32;7.40;;;;;;;;;;4978359;28;20504;-68
2024/02/28 11:26:47;;;;;;;12.02;7.68;;;;;;;;;;4982509;28;20105;-68
2024/02/28 11:29:13;;;;;;;12.73;7.30;;;;;;;;;;4976622;28;20115;-68
2024/02/28 11:31:38;;;;;;;10.00;6.60;;;;;;;;;;4980241;28;20032;-68
2024/02/28 11:34:03;;;;;;;8.95;5.10;;;;;;;;;;4976642;28;20116;-69
2024/02/28 11:36:29;;;;;;;10.52;5.70;;;;;;;;;;4978243;28;21230;-69
2024/02/28 11:38:54;;;;;;;11.25;4.97;;;;;;;;;;4979327;28;20034;-69
2024/02/28 11:41:29;;;;;;;11.25;6.10;;;;;;;;;;4979839;28;20030;-69
2024/02/28 11:43:57;;;;;;;9.63;5.47;;;;;;;;;;4979178;28;20038;-68
2024/02/28 11:46:23;;;;;;;8.93;5.32;;;;;;;;;;4969697;28;20232;-68
2024/02/28 11:48:49;;;;;;;10.43;6.07;;;;;;;;;;4979898;28;20050;-71
2024/02/28 11:51:32;;;;;;;9.15;6.00;;;;;;;;;;4972586;28;20034;-71
2024/02/28 11:54:15;;;;;;;10.40;5.57;;;;;;;;;;4965823;28;20050;-71
2024/02/28 11:56:58;;;;;;;10.95;5.35;;;;;;;;;;4983849;28;20108;-71
2024/02/28 11:59:32;;;;;;;9.68;5.05;;;;;;;;;;4978046;28;20046;-71
2024/02/28 12:01:57;;;;;;;9.02;6.10;;;;;;;;;;4979701;28;20038;-71
2024/02/28 12:04:25;;;;;;;6.93;4.90;;;;;;;;;;4982140;28;20595;-71
2024/02/28 12:07:11;;;;;;;10.05;5.43;;;;;;;;;;4979273;28;20043;-70
2024/02/28 12:09:40;;;;;;;8.80;5.10;;;;;;;;;;4972946;28;20438;-71
2024/02/28 12:12:06;;;;;;;8.17;5.43;;;;;;;;;;4974812;28;20058;-70
2024/02/28 12:14:33;;;;;;;8.32;5.60;;;;;;;;;;4981811;28;20042;-70
2024/02/28 12:17:04;;;;;;;10.13;5.65;;;;;;;;;;5000972;28;20038;-70
2024/02/28 12:19:29;;;;;;;9.32;5.30;;;;;;;;;;4981307;28;20045;-70
2024/02/28 12:21:55;;;;;;;9.57;5.45;;;;;;;;;;4965888;28;20821;-70
2024/02/28 12:24:20;;;;;;;8.25;5.25;;;;;;;;;;4997768;28;20057;-71
2024/02/28 12:26:47;;;;;;;8.98;5.20;;;;;;;;;;4983807;28;20129;-70
2024/02/28 12:29:29;;;;;;;9.30;5.20;;;;;;;;;;4975264;28;20957;-69
2024/02/28 12:31:54;;;;;;;7.15;4.78;;;;;;;;;;4984870;28;20030;-69
2024/02/28 12:34:22;;;;;;;6.32;4.78;;;;;;;;;;4984798;28;20039;-70
2024/02/28 12:36:50;;;;;;;9.25;5.13;;;;;;;;;;4986545;28;20054;-70
2024/02/28 12:39:15;;;;;;;8.15;5.00;;;;;;;;;;4985839;28;20046;-67
2024/02/28 12:41:43;;;;;;;6.70;4.53;;;;;;;;;;4985502;28;20057;-68
2024/02/28 12:44:10;;;;;;;7.57;5.05;;;;;;;;;;4977196;28;20029;-68
2024/02/28 12:46:35;;;;;;;9.60;4.60;;;;;;;;;;4998286;28;20029;-68
2024/02/28 12:49:03;;;;;;;7.55;4.70;;;;;;;;;;4990089;28;20129;-68
2024/02/28 12:51:39;;;;;;;11.23;4.78;;;;;;;;;;4985449;28;20033;-69
2024/02/28 12:54:04;;;;;;;7.78;4.28;;;;;;;;;;4986444;28;20049;-69
2024/02/28 12:56:29;;;;;;;9.25;5.78;;;;;;;;;;4986611;28;20831;-67
2024/02/28 12:58:58;;;;;;;7.93;5.00;;;;;;;;;;4977803;28;20049;-70
2024/02/28 13:01:24;;;;;;;7.00;4.80;;;;;;;;;;4996865;28;20042;-70
2024/02/28 13:03:49;;;;;;;6.85;4.82;;;;;;;;;;4995085;28;20120;-69
2024/02/28 13:06:20;;;;;;;7.55;5.45;;;;;;;;;;4975582;28;20046;-71
2024/02/28 13:08:51;;;;;;;8.23;5.30;;;;;;;;;;4999564;28;20033;-68
2024/02/28 13:11:16;;;;;;;9.02;5.00;;;;;;;;;;4988092;28;20042;-69
2024/02/28 13:13:42;;;;;;;6.82;4.88;;;;;;;;;;4999980;28;20050;-67
2024/02/28 13:16:07;;;;;;;9.77;5.75;;;;;;;;;;4992352;28;20077;-69
2024/02/28 13:18:32;;;;;;;7.82;5.38;;;;;;;;;;4994865;28;20034;-70
2024/02/28 13:20:57;;;;;;;9.75;5.78;;;;;;;;;;4989145;28;20046;-74
2024/02/28 13:23:23;;;;;;;10.70;6.45;;;;;;;;;;4986148;28;20510;-74
2024/02/28 13:25:49;;;;;;;8.60;5.70;;;;;;;;;;5003441;28;20054;-74
2024/02/28 13:28:29;;;;;;;9.70;5.95;;;;;;;;;;4984340;28;20033;-71
2024/02/28 13:31:00;;;;;;;;;;;;;;;;;;4990590;28;20546;-72
2024/02/28 13:33:36;;;;;;;8.00;4.93;;;;;;;;;;4958132;28;19925;-72
2024/02/28 13:36:15;;;;;;;8.38;5.20;;;;;;;;;;4950112;28;20104;-72
2024/02/28 13:39:03;;;;;;;11.95;5.55;;;;;;;;;;4975924;28;20112;-74
2024/02/28 13:41:31;;;;;;;9.07;5.18;;;;;;;;;;4982101;28;20624;-74
2024/02/28 13:43:56;;;;;;;10.70;5.30;;;;;;;;;;5006026;28;20041;-73
2024/02/28 13:46:41;;;;;;;;;;;;;;;;;;;;;
2024/02/28 13:49:07;;;;;;;9.40;5.68;;;;;;;;;;4994827;28;20041;-75
2024/02/28 13:51:51;;;;;;;10.52;5.55;;;;;;;;;;4982969;28;20492;-71
2024/02/28 13:54:21;;;;;;;9.65;4.72;;;;;;;;;;4982918;28;20051;-73
2024/02/28 13:56:46;;;;;;;10.13;5.50;;;;;;;;;;4963469;28;20032;-70
2024/02/28 14:02:28;;;;;;;8.10;5.03;;;;;;;;;;4987963;28;20030;-72
2024/02/28 14:05:09;;;;;;;7.90;4.97;;;;;;;;;;4992367;28;20060;-71
2024/02/28 14:07:47;;;;;;;8.38;4.70;;;;;;;;;;4965333;28;20034;-68
2024/02/28 14:10:24;;;;;;;9.35;4.90;;;;;;;;;;4986136;28;20030;-74
2024/02/28 14:12:58;;;;;;;7.75;4.38;;;;;;;;;;4979409;28;20078;-72
2024/02/28 14:15:29;;;;;;;6.32;4.65;;;;;;;;;;4986433;28;20041;-70
2024/02/28 14:17:54;;;;;;;7.70;4.95;;;;;;;;;;5016731;28;20069;-70
2024/02/28 14:20:20;;;;;;;6.47;4.70;;;;;;;;;;5013996;28;20035;-72
2024/02/28 14:22:48;;;;;;;9.13;5.25;;;;;;;;;;4954097;28;20121;-69
2024/02/28 14:25:14;;;;;;;8.65;5.10;;;;;;;;;;4982049;28;20043;-69
2024/02/28 14:27:41;;;;;;;8.13;4.82;;;;;;;;;;4984829;28;20525;-72
2024/02/28 14:30:08;;;;;;;8.52;5.00;;;;;;;;;;4971388;28;20565;-70
2024/02/28 14:32:45;;;;;;;9.05;5.25;;;;;;;;;;4979363;28;20105;-69
2024/02/28 14:35:19;;;;;;;8.55;4.95;;;;;;;;;;4999148;28;20053;-75
2024/02/28 14:37:45;;;;;;;8.70;5.05;;;;;;;;;;4985635;28;20189;-62
2024/02/28 14:40:10;;;;;;;8.85;5.38;;;;;;;;;;4972510;28;20098;-67
2024/02/28 14:42:36;;;;;;;7.75;5.03;;;;;;;;;;4980818;28;20022;-65
2024/02/28 14:45:02;;;;;;;7.70;4.57;;;;;;;;;;4969897;28;20488;-70
2024/02/28 14:47:27;;;;;;;6.82;5.20;;;;;;;;;;4974636;28;20023;-66
2024/02/28 14:49:52;;;;;;;8.18;5.20;;;;;;;;;;4976608;28;20026;-64